sensor_id;sensor_type;location;lat;lon;timestamp;P1;durP1;ratioP1;P2;durP2;ratioP2
7051;SDS011;3567;52.444;13.556;2023-02-01T00:01:13;25.08;;;3.95;;
7051;SDS011;3567;52.444;13.556;2023-02-01T00:03:39;25.45;;;3.42;;
7051;SDS011;3567;52.444;13.556;2023-02-01T00:06:04;24.40;;;3.58;;
7051;SDS011;3567;52.444;13.556;2023-02-01T00:08:29;25.70;;;4.65;;
7051;SDS011;3567;52.444;13.556;2023-02-01T00:10:59;21.90;;;3.53;;
7051;SDS011;3567;52.444;13.556;2023-02-01T00:13:29;22.05;;;2.85;;
7051;SDS011;3567;52.444;13.556;2023-02-01T00:16:03;21.00;;;4.22;;
7051;SDS011;3567;52.444;13.556;2023-02-01T00:18:35;28.88;;;4.28;;
7051;SDS011;3567;52.444;13.556;2023-02-01T00:21:01;24.25;;;2.97;;
7051;SDS011;3567;52.444;13.556;2023-02-01T00:23:27;29.13;;;4.70;;
7051;SDS011;3567;52.444;13.556;2023-02-01T00:25:52;26.63;;;4.25;;
7051;SDS011;3567;52.444;13.556;2023-02-01T00:28:18;21.52;;;3.63;;
7051;SDS011;3567;52.444;13.556;2023-02-01T00:30:43;19.88;;;3.20;;
7051;SDS011;3567;52.444;13.556;2023-02-01T00:33:09;33.90;;;4.28;;
7051;SDS011;3567;52.444;13.556;2023-02-01T00:35:34;22.58;;;4.07;;
7051;SDS011;3567;52.444;13.556;2023-02-01T00:38:00;27.67;;;3.55;;
7051;SDS011;3567;52.444;13.556;2023-02-01T00:40:26;20.73;;;3.30;;
7051;SDS011;3567;52.444;13.556;2023-02-01T00:42:51;20.63;;;3.08;;
7051;SDS011;3567;52.444;13.556;2023-02-01T00:45:17;16.08;;;2.90;;
7051;SDS011;3567;52.444;13.556;2023-02-01T00:47:43;25.08;;;3.63;;
7051;SDS011;3567;52.444;13.556;2023-02-01T00:50:08;26.23;;;2.85;;
7051;SDS011;3567;52.444;13.556;2023-02-01T00:52:34;20.60;;;3.15;;
7051;SDS011;3567;52.444;13.556;2023-02-01T00:54:59;18.15;;;3.22;;
7051;SDS011;3567;52.444;13.556;2023-02-01T00:57:25;21.75;;;3.33;;
7051;SDS011;3567;52.444;13.556;2023-02-01T00:59:50;18.65;;;2.85;;
7051;SDS011;3567;52.444;13.556;2023-02-01T01:02:15;13.55;;;2.33;;
7051;SDS011;3567;52.444;13.556;2023-02-01T01:04:41;15.68;;;2.67;;
7051;SDS011;3567;52.444;13.556;2023-02-01T01:07:06;21.40;;;3.03;;
7051;SDS011;3567;52.444;13.556;2023-02-01T01:09:32;21.67;;;2.95;;
7051;SDS011;3567;52.444;13.556;2023-02-01T01:11:57;22.80;;;3.35;;
7051;SDS011;3567;52.444;13.556;2023-02-01T01:14:27;17.65;;;2.50;;
7051;SDS011;3567;52.444;13.556;2023-02-01T01:16:55;17.40;;;2.78;;
7051;SDS011;3567;52.444;13.556;2023-02-01T01:19:20;16.20;;;3.45;;
7051;SDS011;3567;52.444;13.556;2023-02-01T01:21:46;12.13;;;2.38;;
7051;SDS011;3567;52.444;13.556;2023-02-01T01:24:11;15.05;;;2.42;;
7051;SDS011;3567;52.444;13.556;2023-02-01T01:26:37;16.90;;;2.50;;
7051;SDS011;3567;52.444;13.556;2023-02-01T01:29:02;15.75;;;3.50;;
7051;SDS011;3567;52.444;13.556;2023-02-01T01:31:28;18.58;;;2.45;;
7051;SDS011;3567;52.444;13.556;2023-02-01T01:33:55;16.90;;;2.75;;
7051;SDS011;3567;52.444;13.556;2023-02-01T01:36:23;15.68;;;2.35;;
7051;SDS011;3567;52.444;13.556;2023-02-01T01:38:48;15.63;;;2.13;;
7051;SDS011;3567;52.444;13.556;2023-02-01T01:41:32;18.17;;;2.78;;
7051;SDS011;3567;52.444;13.556;2023-02-01T01:46:25;11.73;;;2.50;;
7051;SDS011;3567;52.444;13.556;2023-02-01T01:51:28;16.75;;;3.13;;
7051;SDS011;3567;52.444;13.556;2023-02-01T01:54:31;16.38;;;2.75;;
7051;SDS011;3567;52.444;13.556;2023-02-01T01:56:56;20.63;;;2.92;;
7051;SDS011;3567;52.444;13.556;2023-02-01T01:59:25;21.67;;;3.60;;
7051;SDS011;3567;52.444;13.556;2023-02-01T02:01:51;21.77;;;3.08;;
7051;SDS011;3567;52.444;13.556;2023-02-01T02:04:17;26.38;;;3.97;;
7051;SDS011;3567;52.444;13.556;2023-02-01T02:09:29;18.58;;;3.00;;
7051;SDS011;3567;52.444;13.556;2023-02-01T02:11:54;15.90;;;3.53;;
7051;SDS011;3567;52.444;13.556;2023-02-01T02:14:20;13.95;;;2.95;;
7051;SDS011;3567;52.444;13.556;2023-02-01T02:19:52;18.70;;;3.05;;
7051;SDS011;3567;52.444;13.556;2023-02-01T02:31:40;17.75;;;3.33;;
7051;SDS011;3567;52.444;13.556;2023-02-01T02:34:28;17.55;;;2.78;;
7051;SDS011;3567;52.444;13.556;2023-02-01T02:44:54;14.95;;;2.45;;
7051;SDS011;3567;52.444;13.556;2023-02-01T02:50:13;18.73;;;2.55;;
7051;SDS011;3567;52.444;13.556;2023-02-01T02:53:06;12.40;;;2.55;;
7051;SDS011;3567;52.444;13.556;2023-02-01T02:55:56;13.02;;;2.75;;
7051;SDS011;3567;52.444;13.556;2023-02-01T02:58:41;26.20;;;2.97;;
7051;SDS011;3567;52.444;13.556;2023-02-01T03:01:27;16.05;;;3.47;;
7051;SDS011;3567;52.444;13.556;2023-02-01T03:04:12;15.70;;;2.90;;
7051;SDS011;3567;52.444;13.556;2023-02-01T03:06:42;16.98;;;3.08;;
7051;SDS011;3567;52.444;13.556;2023-02-01T03:09:16;23.10;;;3.03;;
7051;SDS011;3567;52.444;13.556;2023-02-01T03:11:46;14.32;;;3.10;;
7051;SDS011;3567;52.444;13.556;2023-02-01T03:14:33;15.93;;;3.40;;
7051;SDS011;3567;52.444;13.556;2023-02-01T03:17:04;20.30;;;3.88;;
7051;SDS011;3567;52.444;13.556;2023-02-01T03:19:40;25.10;;;2.83;;
7051;SDS011;3567;52.444;13.556;2023-02-01T03:22:14;22.02;;;3.25;;
7051;SDS011;3567;52.444;13.556;2023-02-01T03:24:46;20.33;;;2.78;;
7051;SDS011;3567;52.444;13.556;2023-02-01T03:27:21;23.63;;;3.35;;
7051;SDS011;3567;52.444;13.556;2023-02-01T03:29:54;23.00;;;3.75;;
7051;SDS011;3567;52.444;13.556;2023-02-01T03:32:26;23.27;;;4.10;;
7051;SDS011;3567;52.444;13.556;2023-02-01T03:34:51;14.23;;;3.05;;
7051;SDS011;3567;52.444;13.556;2023-02-01T03:37:25;18.60;;;3.17;;
7051;SDS011;3567;52.444;13.556;2023-02-01T03:42:37;21.98;;;3.55;;
7051;SDS011;3567;52.444;13.556;2023-02-01T03:45:10;19.00;;;2.95;;
7051;SDS011;3567;52.444;13.556;2023-02-01T03:47:45;26.75;;;3.42;;
7051;SDS011;3567;52.444;13.556;2023-02-01T03:50:15;19.90;;;3.05;;
7051;SDS011;3567;52.444;13.556;2023-02-01T03:52:44;18.58;;;3.30;;
7051;SDS011;3567;52.444;13.556;2023-02-01T03:55:31;18.20;;;3.10;;
7051;SDS011;3567;52.444;13.556;2023-02-01T03:58:02;27.58;;;4.50;;
7051;SDS011;3567;52.444;13.556;2023-02-01T04:00:32;19.02;;;3.00;;
7051;SDS011;3567;52.444;13.556;2023-02-01T04:02:58;24.77;;;4.25;;
7051;SDS011;3567;52.444;13.556;2023-02-01T04:05:23;19.85;;;3.25;;
7051;SDS011;3567;52.444;13.556;2023-02-01T04:07:49;13.18;;;3.13;;
7051;SDS011;3567;52.444;13.556;2023-02-01T04:10:14;22.02;;;4.18;;
7051;SDS011;3567;52.444;13.556;2023-02-01T04:12:40;20.30;;;2.67;;
7051;SDS011;3567;52.444;13.556;2023-02-01T04:15:06;18.13;;;3.08;;
7051;SDS011;3567;52.444;13.556;2023-02-01T04:17:32;16.05;;;2.83;;
7051;SDS011;3567;52.444;13.556;2023-02-01T04:19:58;22.00;;;3.95;;
7051;SDS011;3567;52.444;13.556;2023-02-01T04:22:23;16.30;;;2.65;;
7051;SDS011;3567;52.444;13.556;2023-02-01T04:24:49;21.52;;;3.30;;
7051;SDS011;3567;52.444;13.556;2023-02-01T04:27:14;18.85;;;3.92;;
7051;SDS011;3567;52.444;13.556;2023-02-01T04:29:40;27.08;;;3.38;;
7051;SDS011;3567;52.444;13.556;2023-02-01T04:32:06;18.15;;;3.35;;
7051;SDS011;3567;52.444;13.556;2023-02-01T04:34:34;20.55;;;3.30;;
7051;SDS011;3567;52.444;13.556;2023-02-01T04:36:59;27.80;;;4.72;;
7051;SDS011;3567;52.444;13.556;2023-02-01T04:39:25;32.10;;;3.80;;
7051;SDS011;3567;52.444;13.556;2023-02-01T04:41:50;17.75;;;2.83;;
7051;SDS011;3567;52.444;13.556;2023-02-01T04:44:16;19.48;;;4.95;;
7051;SDS011;3567;52.444;13.556;2023-02-01T04:46:43;22.63;;;3.38;;
7051;SDS011;3567;52.444;13.556;2023-02-01T04:49:10;20.52;;;3.50;;
7051;SDS011;3567;52.444;13.556;2023-02-01T04:51:36;17.45;;;2.97;;
7051;SDS011;3567;52.444;13.556;2023-02-01T04:54:02;23.35;;;3.95;;
7051;SDS011;3567;52.444;13.556;2023-02-01T04:56:27;20.92;;;3.35;;
7051;SDS011;3567;52.444;13.556;2023-02-01T04:58:53;17.63;;;2.85;;
7051;SDS011;3567;52.444;13.556;2023-02-01T05:01:18;24.40;;;3.50;;
7051;SDS011;3567;52.444;13.556;2023-02-01T05:03:43;18.58;;;2.95;;
7051;SDS011;3567;52.444;13.556;2023-02-01T05:06:09;19.75;;;3.97;;
7051;SDS011;3567;52.444;13.556;2023-02-01T05:08:34;20.52;;;3.50;;
7051;SDS011;3567;52.444;13.556;2023-02-01T05:11:00;19.42;;;3.70;;
7051;SDS011;3567;52.444;13.556;2023-02-01T05:13:27;16.30;;;2.92;;
7051;SDS011;3567;52.444;13.556;2023-02-01T05:16:11;24.25;;;3.38;;
7051;SDS011;3567;52.444;13.556;2023-02-01T05:18:37;21.33;;;2.58;;
7051;SDS011;3567;52.444;13.556;2023-02-01T05:21:02;16.27;;;3.08;;
7051;SDS011;3567;52.444;13.556;2023-02-01T05:23:29;18.23;;;2.92;;
7051;SDS011;3567;52.444;13.556;2023-02-01T05:25:58;22.65;;;3.92;;
7051;SDS011;3567;52.444;13.556;2023-02-01T05:28:25;23.98;;;3.92;;
7051;SDS011;3567;52.444;13.556;2023-02-01T05:30:51;14.10;;;3.10;;
7051;SDS011;3567;52.444;13.556;2023-02-01T05:33:16;18.88;;;3.00;;
7051;SDS011;3567;52.444;13.556;2023-02-01T05:35:41;19.17;;;3.17;;
7051;SDS011;3567;52.444;13.556;2023-02-01T05:38:07;25.02;;;3.65;;
7051;SDS011;3567;52.444;13.556;2023-02-01T05:40:32;20.58;;;3.20;;
7051;SDS011;3567;52.444;13.556;2023-02-01T05:42:57;18.63;;;4.65;;
7051;SDS011;3567;52.444;13.556;2023-02-01T05:45:23;19.17;;;4.57;;
7051;SDS011;3567;52.444;13.556;2023-02-01T05:47:48;20.35;;;3.17;;
7051;SDS011;3567;52.444;13.556;2023-02-01T05:50:13;18.83;;;3.10;;
7051;SDS011;3567;52.444;13.556;2023-02-01T05:52:39;22.55;;;3.63;;
7051;SDS011;3567;52.444;13.556;2023-02-01T05:55:04;21.17;;;3.50;;
7051;SDS011;3567;52.444;13.556;2023-02-01T05:57:30;19.75;;;3.55;;
7051;SDS011;3567;52.444;13.556;2023-02-01T05:59:55;19.83;;;3.30;;
7051;SDS011;3567;52.444;13.556;2023-02-01T06:02:21;19.25;;;3.88;;
7051;SDS011;3567;52.444;13.556;2023-02-01T06:04:46;31.73;;;3.85;;
7051;SDS011;3567;52.444;13.556;2023-02-01T06:07:12;28.10;;;3.08;;
7051;SDS011;3567;52.444;13.556;2023-02-01T06:09:37;21.13;;;3.13;;
7051;SDS011;3567;52.444;13.556;2023-02-01T06:12:03;19.38;;;3.58;;
7051;SDS011;3567;52.444;13.556;2023-02-01T06:14:29;13.75;;;2.60;;
7051;SDS011;3567;52.444;13.556;2023-02-01T06:16:54;16.63;;;3.33;;
7051;SDS011;3567;52.444;13.556;2023-02-01T06:19:20;13.93;;;3.17;;
7051;SDS011;3567;52.444;13.556;2023-02-01T06:21:46;19.10;;;3.42;;
7051;SDS011;3567;52.444;13.556;2023-02-01T06:24:11;18.48;;;4.10;;
7051;SDS011;3567;52.444;13.556;2023-02-01T06:26:37;19.88;;;4.28;;
7051;SDS011;3567;52.444;13.556;2023-02-01T06:29:03;18.40;;;3.47;;
7051;SDS011;3567;52.444;13.556;2023-02-01T06:31:29;34.78;;;10.65;;
7051;SDS011;3567;52.444;13.556;2023-02-01T06:33:56;15.65;;;3.60;;
7051;SDS011;3567;52.444;13.556;2023-02-01T06:36:22;16.40;;;4.30;;
7051;SDS011;3567;52.444;13.556;2023-02-01T06:38:47;27.13;;;4.55;;
7051;SDS011;3567;52.444;13.556;2023-02-01T06:41:13;27.50;;;4.00;;
7051;SDS011;3567;52.444;13.556;2023-02-01T06:43:39;23.67;;;3.83;;
7051;SDS011;3567;52.444;13.556;2023-02-01T06:46:06;21.48;;;2.88;;
7051;SDS011;3567;52.444;13.556;2023-02-01T06:48:33;22.83;;;3.10;;
7051;SDS011;3567;52.444;13.556;2023-02-01T06:50:58;26.17;;;4.13;;
7051;SDS011;3567;52.444;13.556;2023-02-01T06:53:24;27.10;;;3.17;;
7051;SDS011;3567;52.444;13.556;2023-02-01T06:55:56;15.90;;;2.88;;
7051;SDS011;3567;52.444;13.556;2023-02-01T06:58:30;29.42;;;4.40;;
7051;SDS011;3567;52.444;13.556;2023-02-01T07:00:56;22.17;;;4.10;;
7051;SDS011;3567;52.444;13.556;2023-02-01T07:03:21;19.92;;;6.20;;
7051;SDS011;3567;52.444;13.556;2023-02-01T07:05:47;21.35;;;3.53;;
7051;SDS011;3567;52.444;13.556;2023-02-01T07:08:12;32.33;;;4.85;;
7051;SDS011;3567;52.444;13.556;2023-02-01T07:10:37;24.60;;;3.33;;
7051;SDS011;3567;52.444;13.556;2023-02-01T07:13:03;20.40;;;3.53;;
7051;SDS011;3567;52.444;13.556;2023-02-01T07:15:29;16.02;;;3.15;;
7051;SDS011;3567;52.444;13.556;2023-02-01T07:17:54;19.92;;;3.28;;
7051;SDS011;3567;52.444;13.556;2023-02-01T07:20:20;16.40;;;3.53;;
7051;SDS011;3567;52.444;13.556;2023-02-01T07:22:46;19.17;;;3.35;;
7051;SDS011;3567;52.444;13.556;2023-02-01T07:25:11;16.60;;;3.72;;
7051;SDS011;3567;52.444;13.556;2023-02-01T07:27:36;23.00;;;3.42;;
7051;SDS011;3567;52.444;13.556;2023-02-01T07:30:05;17.75;;;3.47;;
7051;SDS011;3567;52.444;13.556;2023-02-01T07:32:31;28.13;;;4.10;;
7051;SDS011;3567;52.444;13.556;2023-02-01T07:34:57;20.38;;;3.22;;
7051;SDS011;3567;52.444;13.556;2023-02-01T07:37:23;21.75;;;3.58;;
7051;SDS011;3567;52.444;13.556;2023-02-01T07:39:52;16.10;;;3.45;;
7051;SDS011;3567;52.444;13.556;2023-02-01T07:42:17;23.55;;;4.15;;
7051;SDS011;3567;52.444;13.556;2023-02-01T07:44:43;30.08;;;4.22;;
7051;SDS011;3567;52.444;13.556;2023-02-01T07:47:08;12.80;;;2.85;;
7051;SDS011;3567;52.444;13.556;2023-02-01T07:49:34;16.48;;;3.40;;
7051;SDS011;3567;52.444;13.556;2023-02-01T07:51:59;15.60;;;3.55;;
7051;SDS011;3567;52.444;13.556;2023-02-01T07:54:24;22.77;;;3.92;;
7051;SDS011;3567;52.444;13.556;2023-02-01T07:56:50;17.58;;;3.08;;
7051;SDS011;3567;52.444;13.556;2023-02-01T07:59:15;14.82;;;3.22;;
7051;SDS011;3567;52.444;13.556;2023-02-01T08:01:41;24.27;;;4.32;;
7051;SDS011;3567;52.444;13.556;2023-02-01T08:04:07;14.93;;;2.88;;
7051;SDS011;3567;52.444;13.556;2023-02-01T08:06:35;19.33;;;3.58;;
7051;SDS011;3567;52.444;13.556;2023-02-01T08:09:01;17.98;;;3.50;;
7051;SDS011;3567;52.444;13.556;2023-02-01T08:11:27;17.27;;;3.33;;
7051;SDS011;3567;52.444;13.556;2023-02-01T08:13:53;19.17;;;3.47;;
7051;SDS011;3567;52.444;13.556;2023-02-01T08:16:19;13.38;;;3.30;;
7051;SDS011;3567;52.444;13.556;2023-02-01T08:18:46;19.27;;;3.97;;
7051;SDS011;3567;52.444;13.556;2023-02-01T08:21:12;15.45;;;3.00;;
7051;SDS011;3567;52.444;13.556;2023-02-01T08:23:40;16.55;;;4.18;;
7051;SDS011;3567;52.444;13.556;2023-02-01T08:26:17;18.13;;;4.13;;
7051;SDS011;3567;52.444;13.556;2023-02-01T08:28:48;16.55;;;4.53;;
7051;SDS011;3567;52.444;13.556;2023-02-01T08:31:16;14.00;;;3.17;;
7051;SDS011;3567;52.444;13.556;2023-02-01T08:33:47;13.70;;;3.22;;
7051;SDS011;3567;52.444;13.556;2023-02-01T08:36:14;16.25;;;3.85;;
7051;SDS011;3567;52.444;13.556;2023-02-01T08:38:40;14.07;;;3.72;;
7051;SDS011;3567;52.444;13.556;2023-02-01T08:41:09;17.05;;;3.63;;
7051;SDS011;3567;52.444;13.556;2023-02-01T08:43:38;16.52;;;3.83;;
7051;SDS011;3567;52.444;13.556;2023-02-01T08:46:04;16.17;;;3.80;;
7051;SDS011;3567;52.444;13.556;2023-02-01T08:48:30;12.38;;;3.70;;
7051;SDS011;3567;52.444;13.556;2023-02-01T08:50:56;12.40;;;3.90;;
7051;SDS011;3567;52.444;13.556;2023-02-01T08:53:22;16.27;;;4.30;;
7051;SDS011;3567;52.444;13.556;2023-02-01T08:55:47;12.90;;;3.75;;
7051;SDS011;3567;52.444;13.556;2023-02-01T08:58:13;15.40;;;4.18;;
7051;SDS011;3567;52.444;13.556;2023-02-01T09:03:13;15.45;;;3.80;;
7051;SDS011;3567;52.444;13.556;2023-02-01T09:05:38;12.40;;;4.15;;
7051;SDS011;3567;52.444;13.556;2023-02-01T09:08:04;14.15;;;3.13;;
7051;SDS011;3567;52.444;13.556;2023-02-01T09:10:30;9.02;;;2.97;;
7051;SDS011;3567;52.444;13.556;2023-02-01T09:12:55;8.98;;;2.63;;
7051;SDS011;3567;52.444;13.556;2023-02-01T09:15:22;9.38;;;2.22;;
7051;SDS011;3567;52.444;13.556;2023-02-01T09:17:47;6.47;;;2.10;;
7051;SDS011;3567;52.444;13.556;2023-02-01T09:20:13;10.68;;;2.47;;
7051;SDS011;3567;52.444;13.556;2023-02-01T09:22:39;10.77;;;2.35;;
7051;SDS011;3567;52.444;13.556;2023-02-01T09:25:04;8.25;;;2.55;;
7051;SDS011;3567;52.444;13.556;2023-02-01T09:27:30;12.50;;;2.13;;
7051;SDS011;3567;52.444;13.556;2023-02-01T09:29:55;10.55;;;2.78;;
7051;SDS011;3567;52.444;13.556;2023-02-01T09:32:21;6.43;;;1.70;;
7051;SDS011;3567;52.444;13.556;2023-02-01T09:34:48;6.10;;;1.48;;
7051;SDS011;3567;52.444;13.556;2023-02-01T09:37:14;12.35;;;2.25;;
7051;SDS011;3567;52.444;13.556;2023-02-01T09:39:40;6.95;;;2.05;;
7051;SDS011;3567;52.444;13.556;2023-02-01T09:47:11;6.10;;;1.88;;
7051;SDS011;3567;52.444;13.556;2023-02-01T09:49:39;3.97;;;1.20;;
7051;SDS011;3567;52.444;13.556;2023-02-01T09:52:12;5.63;;;1.48;;
7051;SDS011;3567;52.444;13.556;2023-02-01T09:54:47;4.25;;;0.98;;
7051;SDS011;3567;52.444;13.556;2023-02-01T09:57:19;4.78;;;0.85;;
7051;SDS011;3567;52.444;13.556;2023-02-01T09:59:54;5.13;;;0.95;;
7051;SDS011;3567;52.444;13.556;2023-02-01T10:02:26;4.38;;;0.82;;
7051;SDS011;3567;52.444;13.556;2023-02-01T10:04:54;9.77;;;1.02;;
7051;SDS011;3567;52.444;13.556;2023-02-01T10:07:25;7.82;;;1.35;;
7051;SDS011;3567;52.444;13.556;2023-02-01T10:10:02;4.40;;;1.30;;
7051;SDS011;3567;52.444;13.556;2023-02-01T10:15:30;4.75;;;0.95;;
7051;SDS011;3567;52.444;13.556;2023-02-01T10:23:27;3.65;;;1.15;;
7051;SDS011;3567;52.444;13.556;2023-02-01T10:26:04;2.45;;;1.02;;
7051;SDS011;3567;52.444;13.556;2023-02-01T10:28:37;4.50;;;0.82;;
7051;SDS011;3567;52.444;13.556;2023-02-01T10:31:04;8.02;;;1.05;;
7051;SDS011;3567;52.444;13.556;2023-02-01T10:33:39;5.03;;;1.00;;
7051;SDS011;3567;52.444;13.556;2023-02-01T10:38:44;6.40;;;1.40;;
7051;SDS011;3567;52.444;13.556;2023-02-01T10:41:12;6.22;;;1.08;;
7051;SDS011;3567;52.444;13.556;2023-02-01T10:43:40;10.55;;;1.75;;
7051;SDS011;3567;52.444;13.556;2023-02-01T10:46:07;5.80;;;1.20;;
7051;SDS011;3567;52.444;13.556;2023-02-01T10:48:33;11.10;;;2.03;;
7051;SDS011;3567;52.444;13.556;2023-02-01T10:50:59;8.60;;;2.05;;
7051;SDS011;3567;52.444;13.556;2023-02-01T10:53:41;8.65;;;2.05;;
7051;SDS011;3567;52.444;13.556;2023-02-01T10:56:13;7.80;;;2.25;;
7051;SDS011;3567;52.444;13.556;2023-02-01T10:58:45;4.70;;;1.75;;
7051;SDS011;3567;52.444;13.556;2023-02-01T11:01:22;8.38;;;1.40;;
7051;SDS011;3567;52.444;13.556;2023-02-01T11:04:00;10.18;;;1.33;;
7051;SDS011;3567;52.444;13.556;2023-02-01T11:09:08;8.30;;;1.27;;
7051;SDS011;3567;52.444;13.556;2023-02-01T11:16:49;6.72;;;1.45;;
7051;SDS011;3567;52.444;13.556;2023-02-01T11:19:17;10.15;;;1.58;;
7051;SDS011;3567;52.444;13.556;2023-02-01T11:21:43;5.43;;;1.42;;
7051;SDS011;3567;52.444;13.556;2023-02-01T11:24:19;9.93;;;1.30;;
7051;SDS011;3567;52.444;13.556;2023-02-01T11:26:49;10.10;;;1.38;;
7051;SDS011;3567;52.444;13.556;2023-02-01T11:29:17;9.10;;;2.05;;
7051;SDS011;3567;52.444;13.556;2023-02-01T11:31:47;12.07;;;1.98;;
7051;SDS011;3567;52.444;13.556;2023-02-01T11:34:17;8.70;;;1.27;;
7051;SDS011;3567;52.444;13.556;2023-02-01T11:36:46;14.65;;;1.90;;
7051;SDS011;3567;52.444;13.556;2023-02-01T11:39:18;9.57;;;1.73;;
7051;SDS011;3567;52.444;13.556;2023-02-01T11:44:32;8.85;;;2.05;;
7051;SDS011;3567;52.444;13.556;2023-02-01T11:49:45;10.05;;;2.20;;
7051;SDS011;3567;52.444;13.556;2023-02-01T11:55:30;11.27;;;2.13;;
7051;SDS011;3567;52.444;13.556;2023-02-01T12:11:50;7.38;;;1.25;;
7051;SDS011;3567;52.444;13.556;2023-02-01T12:22:45;10.32;;;1.63;;
7051;SDS011;3567;52.444;13.556;2023-02-01T12:33:16;8.43;;;1.65;;
7051;SDS011;3567;52.444;13.556;2023-02-01T12:39:00;14.35;;;1.90;;
7051;SDS011;3567;52.444;13.556;2023-02-01T12:46:50;7.07;;;1.77;;
7051;SDS011;3567;52.444;13.556;2023-02-01T12:49:20;7.13;;;1.58;;
7051;SDS011;3567;52.444;13.556;2023-02-01T12:52:09;10.70;;;1.90;;
7051;SDS011;3567;52.444;13.556;2023-02-01T12:54:54;9.13;;;1.92;;
7051;SDS011;3567;52.444;13.556;2023-02-01T12:57:27;7.70;;;1.67;;
7051;SDS011;3567;52.444;13.556;2023-02-01T13:00:12;9.55;;;1.40;;
7051;SDS011;3567;52.444;13.556;2023-02-01T13:02:52;9.10;;;1.30;;
7051;SDS011;3567;52.444;13.556;2023-02-01T13:05:30;12.90;;;1.85;;
7051;SDS011;3567;52.444;13.556;2023-02-01T13:13:14;11.63;;;1.42;;
7051;SDS011;3567;52.444;13.556;2023-02-01T13:15:49;6.63;;;1.90;;
7051;SDS011;3567;52.444;13.556;2023-02-01T13:18:22;8.25;;;1.80;;
7051;SDS011;3567;52.444;13.556;2023-02-01T13:21:43;8.70;;;1.33;;
7051;SDS011;3567;52.444;13.556;2023-02-01T13:23:46;12.30;;;1.58;;
7051;SDS011;3567;52.444;13.556;2023-02-01T13:26:13;9.57;;;1.23;;
7051;SDS011;3567;52.444;13.556;2023-02-01T13:28:44;4.55;;;1.25;;
7051;SDS011;3567;52.444;13.556;2023-02-01T13:33:58;7.50;;;1.10;;
7051;SDS011;3567;52.444;13.556;2023-02-01T13:41:59;7.50;;;1.85;;
7051;SDS011;3567;52.444;13.556;2023-02-01T13:44:38;8.70;;;1.58;;
7051;SDS011;3567;52.444;13.556;2023-02-01T13:47:14;6.00;;;1.20;;
7051;SDS011;3567;52.444;13.556;2023-02-01T13:49:47;6.93;;;1.17;;
7051;SDS011;3567;52.444;13.556;2023-02-01T13:52:27;6.88;;;1.20;;
7051;SDS011;3567;52.444;13.556;2023-02-01T13:57:49;9.57;;;1.83;;
7051;SDS011;3567;52.444;13.556;2023-02-01T14:00:27;8.10;;;1.35;;
7051;SDS011;3567;52.444;13.556;2023-02-01T14:13:36;8.77;;;2.25;;
7051;SDS011;3567;52.444;13.556;2023-02-01T14:23:44;8.43;;;2.33;;
7051;SDS011;3567;52.444;13.556;2023-02-01T14:26:15;11.65;;;2.03;;
7051;SDS011;3567;52.444;13.556;2023-02-01T14:28:44;9.95;;;2.40;;
7051;SDS011;3567;52.444;13.556;2023-02-01T14:31:32;13.50;;;2.63;;
7051;SDS011;3567;52.444;13.556;2023-02-01T14:37:05;6.93;;;2.20;;
7051;SDS011;3567;52.444;13.556;2023-02-01T14:39:38;8.57;;;2.25;;
7051;SDS011;3567;52.444;13.556;2023-02-01T14:42:28;9.10;;;1.73;;
7051;SDS011;3567;52.444;13.556;2023-02-01T14:47:47;8.80;;;1.65;;
7051;SDS011;3567;52.444;13.556;2023-02-01T15:01:15;11.65;;;1.83;;
7051;SDS011;3567;52.444;13.556;2023-02-01T15:06:22;6.88;;;1.85;;
7051;SDS011;3567;52.444;13.556;2023-02-01T15:09:07;6.57;;;1.38;;
7051;SDS011;3567;52.444;13.556;2023-02-01T15:11:52;11.85;;;1.73;;
7051;SDS011;3567;52.444;13.556;2023-02-01T15:14:22;10.07;;;1.75;;
7051;SDS011;3567;52.444;13.556;2023-02-01T15:16:48;9.10;;;2.10;;
7051;SDS011;3567;52.444;13.556;2023-02-01T15:19:19;12.68;;;2.65;;
7051;SDS011;3567;52.444;13.556;2023-02-01T15:21:51;9.13;;;1.52;;
7051;SDS011;3567;52.444;13.556;2023-02-01T15:24:22;11.88;;;1.10;;
7051;SDS011;3567;52.444;13.556;2023-02-01T15:26:50;10.38;;;1.85;;
7051;SDS011;3567;52.444;13.556;2023-02-01T15:29:17;8.98;;;2.03;;
7051;SDS011;3567;52.444;13.556;2023-02-01T15:31:45;7.35;;;1.40;;
7051;SDS011;3567;52.444;13.556;2023-02-01T15:34:12;8.57;;;1.70;;
7051;SDS011;3567;52.444;13.556;2023-02-01T15:36:38;6.50;;;1.08;;
7051;SDS011;3567;52.444;13.556;2023-02-01T15:42:22;9.07;;;1.25;;
7051;SDS011;3567;52.444;13.556;2023-02-01T15:44:47;3.90;;;0.85;;
7051;SDS011;3567;52.444;13.556;2023-02-01T15:47:14;2.88;;;1.50;;
7051;SDS011;3567;52.444;13.556;2023-02-01T15:49:43;8.60;;;1.60;;
7051;SDS011;3567;52.444;13.556;2023-02-01T15:52:46;6.70;;;2.15;;
7051;SDS011;3567;52.444;13.556;2023-02-01T15:55:06;13.32;;;2.70;;
7051;SDS011;3567;52.444;13.556;2023-02-01T15:57:42;3.78;;;1.17;;
7051;SDS011;3567;52.444;13.556;2023-02-01T16:02:56;5.97;;;1.08;;
7051;SDS011;3567;52.444;13.556;2023-02-01T16:05:39;5.13;;;0.98;;
7051;SDS011;3567;52.444;13.556;2023-02-01T16:08:20;1.38;;;1.00;;
7051;SDS011;3567;52.444;13.556;2023-02-01T16:10:48;6.78;;;1.88;;
7051;SDS011;3567;52.444;13.556;2023-02-01T16:13:17;2.20;;;1.20;;
7051;SDS011;3567;52.444;13.556;2023-02-01T16:15:43;8.52;;;1.83;;
7051;SDS011;3567;52.444;13.556;2023-02-01T16:18:09;2.15;;;1.23;;
7051;SDS011;3567;52.444;13.556;2023-02-01T16:20:37;3.53;;;1.20;;
7051;SDS011;3567;52.444;13.556;2023-02-01T16:23:04;4.50;;;1.92;;
7051;SDS011;3567;52.444;13.556;2023-02-01T16:25:30;1.25;;;0.60;;
7051;SDS011;3567;52.444;13.556;2023-02-01T16:27:56;0.80;;;0.80;;
7051;SDS011;3567;52.444;13.556;2023-02-01T16:30:21;0.80;;;0.80;;
7051;SDS011;3567;52.444;13.556;2023-02-01T16:32:51;1.70;;;0.70;;
7051;SDS011;3567;52.444;13.556;2023-02-01T16:35:23;1.95;;;0.80;;
7051;SDS011;3567;52.444;13.556;2023-02-01T16:38:04;0.77;;;0.77;;
7051;SDS011;3567;52.444;13.556;2023-02-01T16:40:37;1.88;;;0.68;;
7051;SDS011;3567;52.444;13.556;2023-02-01T16:43:07;1.50;;;0.77;;
7051;SDS011;3567;52.444;13.556;2023-02-01T16:45:37;2.53;;;0.40;;
7051;SDS011;3567;52.444;13.556;2023-02-01T16:48:03;1.48;;;0.40;;
7051;SDS011;3567;52.444;13.556;2023-02-01T16:50:29;1.70;;;0.40;;
7051;SDS011;3567;52.444;13.556;2023-02-01T16:52:58;0.40;;;0.30;;
7051;SDS011;3567;52.444;13.556;2023-02-01T16:55:23;1.42;;;0.28;;
7051;SDS011;3567;52.444;13.556;2023-02-01T16:57:50;2.05;;;0.30;;
7051;SDS011;3567;52.444;13.556;2023-02-01T17:00:15;0.85;;;0.40;;
7051;SDS011;3567;52.444;13.556;2023-02-01T17:02:41;4.10;;;0.45;;
7051;SDS011;3567;52.444;13.556;2023-02-01T17:05:07;9.30;;;3.42;;
7051;SDS011;3567;52.444;13.556;2023-02-01T17:07:33;1.55;;;0.40;;
7051;SDS011;3567;52.444;13.556;2023-02-01T17:09:58;2.85;;;0.32;;
7051;SDS011;3567;52.444;13.556;2023-02-01T17:12:25;3.17;;;0.50;;
7051;SDS011;3567;52.444;13.556;2023-02-01T17:14:51;2.40;;;0.47;;
7051;SDS011;3567;52.444;13.556;2023-02-01T17:17:16;1.67;;;0.47;;
7051;SDS011;3567;52.444;13.556;2023-02-01T17:19:44;1.17;;;0.90;;
7051;SDS011;3567;52.444;13.556;2023-02-01T17:22:15;2.47;;;0.80;;
7051;SDS011;3567;52.444;13.556;2023-02-01T17:24:40;3.45;;;0.80;;
7051;SDS011;3567;52.444;13.556;2023-02-01T17:27:06;3.15;;;0.85;;
7051;SDS011;3567;52.444;13.556;2023-02-01T17:29:32;0.50;;;0.50;;
7051;SDS011;3567;52.444;13.556;2023-02-01T17:31:57;6.30;;;0.90;;
7051;SDS011;3567;52.444;13.556;2023-02-01T17:34:24;5.32;;;0.80;;
7051;SDS011;3567;52.444;13.556;2023-02-01T17:36:50;3.35;;;1.05;;
7051;SDS011;3567;52.444;13.556;2023-02-01T17:39:15;1.77;;;0.90;;
7051;SDS011;3567;52.444;13.556;2023-02-01T17:42:02;4.85;;;1.23;;
7051;SDS011;3567;52.444;13.556;2023-02-01T17:44:29;4.93;;;1.00;;
7051;SDS011;3567;52.444;13.556;2023-02-01T17:46:54;5.68;;;1.05;;
7051;SDS011;3567;52.444;13.556;2023-02-01T17:49:21;6.63;;;0.98;;
7051;SDS011;3567;52.444;13.556;2023-02-01T17:51:47;4.82;;;1.42;;